sensor_id;sensor_type;location;lat;lon;timestamp;P1;durP1;ratioP1;P2;durP2;ratioP2
4011;SDS011;2020;48.682;9.024;2023-03-08T00:00:05;8.53;;;6.77;;
4011;SDS011;2020;48.682;9.024;2023-03-08T00:02:34;11.40;;;7.00;;
4011;SDS011;2020;48.682;9.024;2023-03-08T00:05:00;10.70;;;6.97;;
4011;SDS011;2020;48.682;9.024;2023-03-08T00:07:26;8.80;;;6.10;;
4011;SDS011;2020;48.682;9.024;2023-03-08T00:09:51;8.10;;;7.20;;
4011;SDS011;2020;48.682;9.024;2023-03-08T00:12:17;7.37;;;6.60;;
4011;SDS011;2020;48.682;9.024;2023-03-08T00:14:44;10.93;;;7.37;;
4011;SDS011;2020;48.682;9.024;2023-03-08T00:17:09;7.17;;;6.57;;
4011;SDS011;2020;48.682;9.024;2023-03-08T00:19:37;7.03;;;6.23;;
4011;SDS011;2020;48.682;9.024;2023-03-08T00:22:02;9.33;;;6.60;;
4011;SDS011;2020;48.682;9.024;2023-03-08T00:24:27;11.80;;;7.70;;
4011;SDS011;2020;48.682;9.024;2023-03-08T00:26:53;8.67;;;6.20;;
4011;SDS011;2020;48.682;9.024;2023-03-08T00:29:18;11.00;;;7.70;;
4011;SDS011;2020;48.682;9.024;2023-03-08T00:31:43;7.10;;;6.27;;
4011;SDS011;2020;48.682;9.024;2023-03-08T00:34:08;8.60;;;6.80;;
4011;SDS011;2020;48.682;9.024;2023-03-08T00:36:34;7.00;;;6.13;;
4011;SDS011;2020;48.682;9.024;2023-03-08T00:38:59;14.10;;;8.07;;
4011;SDS011;2020;48.682;9.024;2023-03-08T00:41:24;9.73;;;6.87;;
4011;SDS011;2020;48.682;9.024;2023-03-08T00:43:49;7.83;;;7.00;;
4011;SDS011;2020;48.682;9.024;2023-03-08T00:46:15;9.33;;;6.87;;
4011;SDS011;2020;48.682;9.024;2023-03-08T00:48:40;13.13;;;8.20;;
4011;SDS011;2020;48.682;9.024;2023-03-08T00:51:06;13.60;;;8.63;;
4011;SDS011;2020;48.682;9.024;2023-03-08T00:53:32;10.80;;;8.03;;
4011;SDS011;2020;48.682;9.024;2023-03-08T00:55:58;9.50;;;8.20;;
4011;SDS011;2020;48.682;9.024;2023-03-08T00:58:25;8.30;;;7.53;;
4011;SDS011;2020;48.682;9.024;2023-03-08T01:00:52;12.47;;;8.30;;
4011;SDS011;2020;48.682;9.024;2023-03-08T01:03:17;9.70;;;7.40;;
4011;SDS011;2020;48.682;9.024;2023-03-08T01:05:44;12.77;;;7.80;;
4011;SDS011;2020;48.682;9.024;2023-03-08T01:08:11;11.77;;;8.57;;
4011;SDS011;2020;48.682;9.024;2023-03-08T01:10:37;10.57;;;8.03;;
4011;SDS011;2020;48.682;9.024;2023-03-08T01:13:03;11.53;;;9.20;;
4011;SDS011;2020;48.682;9.024;2023-03-08T01:15:29;12.87;;;8.83;;
4011;SDS011;2020;48.682;9.024;2023-03-08T01:17:55;11.70;;;8.00;;
4011;SDS011;2020;48.682;9.024;2023-03-08T01:20:20;11.20;;;7.10;;
4011;SDS011;2020;48.682;9.024;2023-03-08T01:22:45;16.93;;;9.70;;
4011;SDS011;2020;48.682;9.024;2023-03-08T01:25:10;9.73;;;7.07;;
4011;SDS011;2020;48.682;9.024;2023-03-08T01:27:36;12.07;;;7.80;;
4011;SDS011;2020;48.682;9.024;2023-03-08T01:30:01;12.57;;;8.97;;
4011;SDS011;2020;48.682;9.024;2023-03-08T01:32:26;11.13;;;9.00;;
4011;SDS011;2020;48.682;9.024;2023-03-08T01:34:51;14.60;;;8.37;;
4011;SDS011;2020;48.682;9.024;2023-03-08T01:37:17;13.63;;;9.13;;
4011;SDS011;2020;48.682;9.024;2023-03-08T01:39:42;12.73;;;7.63;;
4011;SDS011;2020;48.682;9.024;2023-03-08T01:42:07;9.90;;;8.67;;
4011;SDS011;2020;48.682;9.024;2023-03-08T01:47:52;12.40;;;8.83;;
4011;SDS011;2020;48.682;9.024;2023-03-08T01:50:17;8.60;;;7.70;;
4011;SDS011;2020;48.682;9.024;2023-03-08T01:52:47;8.40;;;7.40;;
4011;SDS011;2020;48.682;9.024;2023-03-08T01:55:16;11.20;;;8.63;;
4011;SDS011;2020;48.682;9.024;2023-03-08T01:57:53;11.37;;;8.77;;
4011;SDS011;2020;48.682;9.024;2023-03-08T02:00:21;16.73;;;8.50;;
4011;SDS011;2020;48.682;9.024;2023-03-08T02:02:49;12.00;;;8.77;;
4011;SDS011;2020;48.682;9.024;2023-03-08T02:05:18;9.50;;;7.63;;
4011;SDS011;2020;48.682;9.024;2023-03-08T02:07:43;9.90;;;8.43;;
4011;SDS011;2020;48.682;9.024;2023-03-08T02:10:09;13.30;;;9.63;;
4011;SDS011;2020;48.682;9.024;2023-03-08T02:12:36;15.23;;;8.90;;
4011;SDS011;2020;48.682;9.024;2023-03-08T02:15:02;11.40;;;8.10;;
4011;SDS011;2020;48.682;9.024;2023-03-08T02:17:29;14.60;;;9.40;;
4011;SDS011;2020;48.682;9.024;2023-03-08T02:20:01;8.53;;;7.60;;
4011;SDS011;2020;48.682;9.024;2023-03-08T02:22:38;11.10;;;9.20;;
4011;SDS011;2020;48.682;9.024;2023-03-08T02:25:14;11.13;;;7.80;;
4011;SDS011;2020;48.682;9.024;2023-03-08T02:27:39;9.20;;;7.27;;
4011;SDS011;2020;48.682;9.024;2023-03-08T02:30:05;11.87;;;8.97;;
4011;SDS011;2020;48.682;9.024;2023-03-08T02:32:30;14.30;;;8.57;;
4011;SDS011;2020;48.682;9.024;2023-03-08T02:34:56;8.57;;;7.33;;
4011;SDS011;2020;48.682;9.024;2023-03-08T02:37:21;13.43;;;8.30;;
4011;SDS011;2020;48.682;9.024;2023-03-08T02:39:46;14.00;;;8.20;;
4011;SDS011;2020;48.682;9.024;2023-03-08T02:42:11;12.43;;;8.40;;
4011;SDS011;2020;48.682;9.024;2023-03-08T02:44:37;17.20;;;8.10;;
4011;SDS011;2020;48.682;9.024;2023-03-08T02:47:02;11.20;;;8.17;;
4011;SDS011;2020;48.682;9.024;2023-03-08T02:49:27;9.00;;;7.13;;
4011;SDS011;2020;48.682;9.024;2023-03-08T02:51:52;11.57;;;8.80;;
4011;SDS011;2020;48.682;9.024;2023-03-08T02:54:18;13.30;;;7.80;;
4011;SDS011;2020;48.682;9.024;2023-03-08T02:56:43;11.33;;;7.30;;
4011;SDS011;2020;48.682;9.024;2023-03-08T02:59:08;11.03;;;8.13;;
4011;SDS011;2020;48.682;9.024;2023-03-08T03:01:34;11.53;;;7.70;;
4011;SDS011;2020;48.682;9.024;2023-03-08T03:03:59;11.00;;;7.97;;
4011;SDS011;2020;48.682;9.024;2023-03-08T03:06:25;11.00;;;7.60;;
4011;SDS011;2020;48.682;9.024;2023-03-08T03:08:50;9.10;;;7.67;;
4011;SDS011;2020;48.682;9.024;2023-03-08T03:11:16;8.53;;;7.20;;
4011;SDS011;2020;48.682;9.024;2023-03-08T03:13:43;10.17;;;6.93;;
4011;SDS011;2020;48.682;9.024;2023-03-08T03:16:10;7.80;;;7.00;;
4011;SDS011;2020;48.682;9.024;2023-03-08T03:18:37;10.73;;;6.93;;
4011;SDS011;2020;48.682;9.024;2023-03-08T03:21:06;11.13;;;7.00;;
4011;SDS011;2020;48.682;9.024;2023-03-08T03:23:34;8.30;;;7.17;;
4011;SDS011;2020;48.682;9.024;2023-03-08T03:26:03;8.83;;;6.73;;
4011;SDS011;2020;48.682;9.024;2023-03-08T03:28:30;8.30;;;7.50;;
4011;SDS011;2020;48.682;9.024;2023-03-08T03:30:55;8.30;;;6.53;;
4011;SDS011;2020;48.682;9.024;2023-03-08T03:33:20;7.80;;;7.00;;
4011;SDS011;2020;48.682;9.024;2023-03-08T03:35:46;12.57;;;6.53;;
4011;SDS011;2020;48.682;9.024;2023-03-08T03:38:11;9.97;;;6.60;;
4011;SDS011;2020;48.682;9.024;2023-03-08T03:40:36;9.67;;;7.73;;
4011;SDS011;2020;48.682;9.024;2023-03-08T03:43:01;7.53;;;5.70;;
4011;SDS011;2020;48.682;9.024;2023-03-08T03:45:27;8.40;;;7.13;;
4011;SDS011;2020;48.682;9.024;2023-03-08T03:47:52;9.83;;;7.27;;
4011;SDS011;2020;48.682;9.024;2023-03-08T03:50:17;11.13;;;6.73;;
4011;SDS011;2020;48.682;9.024;2023-03-08T03:52:43;9.97;;;6.63;;
4011;SDS011;2020;48.682;9.024;2023-03-08T03:55:08;7.73;;;6.73;;
4011;SDS011;2020;48.682;9.024;2023-03-08T03:57:33;10.30;;;7.93;;
4011;SDS011;2020;48.682;9.024;2023-03-08T03:59:59;13.00;;;6.47;;
4011;SDS011;2020;48.682;9.024;2023-03-08T04:02:24;12.63;;;6.30;;
4011;SDS011;2020;48.682;9.024;2023-03-08T04:04:49;8.80;;;6.33;;
4011;SDS011;2020;48.682;9.024;2023-03-08T04:07:15;12.20;;;7.10;;
4011;SDS011;2020;48.682;9.024;2023-03-08T04:09:40;8.73;;;6.60;;
4011;SDS011;2020;48.682;9.024;2023-03-08T04:12:05;10.93;;;7.87;;
4011;SDS011;2020;48.682;9.024;2023-03-08T04:14:31;9.10;;;6.90;;
4011;SDS011;2020;48.682;9.024;2023-03-08T04:16:56;11.07;;;7.60;;
4011;SDS011;2020;48.682;9.024;2023-03-08T04:19:21;11.07;;;7.30;;
4011;SDS011;2020;48.682;9.024;2023-03-08T04:21:46;9.57;;;7.40;;
4011;SDS011;2020;48.682;9.024;2023-03-08T04:24:12;9.93;;;6.90;;
4011;SDS011;2020;48.682;9.024;2023-03-08T04:26:37;9.10;;;7.33;;
4011;SDS011;2020;48.682;9.024;2023-03-08T04:29:03;13.60;;;7.13;;
4011;SDS011;2020;48.682;9.024;2023-03-08T04:31:30;10.97;;;7.00;;
4011;SDS011;2020;48.682;9.024;2023-03-08T04:33:56;8.97;;;7.03;;
4011;SDS011;2020;48.682;9.024;2023-03-08T04:36:24;7.50;;;6.73;;
4011;SDS011;2020;48.682;9.024;2023-03-08T04:38:50;10.30;;;7.30;;
4011;SDS011;2020;48.682;9.024;2023-03-08T04:41:15;11.80;;;7.57;;
4011;SDS011;2020;48.682;9.024;2023-03-08T04:43:45;8.13;;;7.17;;
4011;SDS011;2020;48.682;9.024;2023-03-08T04:46:13;12.60;;;6.67;;
4011;SDS011;2020;48.682;9.024;2023-03-08T04:48:39;11.30;;;7.30;;
4011;SDS011;2020;48.682;9.024;2023-03-08T04:51:05;10.10;;;6.70;;
4011;SDS011;2020;48.682;9.024;2023-03-08T04:53:31;9.03;;;6.77;;
4011;SDS011;2020;48.682;9.024;2023-03-08T04:55:57;8.60;;;7.20;;
4011;SDS011;2020;48.682;9.024;2023-03-08T04:58:24;12.33;;;7.30;;
4011;SDS011;2020;48.682;9.024;2023-03-08T05:00:50;15.77;;;7.13;;
4011;SDS011;2020;48.682;9.024;2023-03-08T05:03:15;12.13;;;7.50;;
4011;SDS011;2020;48.682;9.024;2023-03-08T05:05:45;11.93;;;8.07;;
4011;SDS011;2020;48.682;9.024;2023-03-08T05:08:14;11.50;;;7.93;;
4011;SDS011;2020;48.682;9.024;2023-03-08T05:10:45;11.70;;;7.80;;
4011;SDS011;2020;48.682;9.024;2023-03-08T05:13:11;9.57;;;8.00;;
4011;SDS011;2020;48.682;9.024;2023-03-08T05:15:36;12.07;;;7.50;;
4011;SDS011;2020;48.682;9.024;2023-03-08T05:18:02;11.97;;;8.23;;
4011;SDS011;2020;48.682;9.024;2023-03-08T05:20:27;17.13;;;9.23;;
4011;SDS011;2020;48.682;9.024;2023-03-08T05:22:52;13.00;;;8.37;;
4011;SDS011;2020;48.682;9.024;2023-03-08T05:25:17;11.20;;;9.17;;
4011;SDS011;2020;48.682;9.024;2023-03-08T05:27:43;15.73;;;8.67;;
4011;SDS011;2020;48.682;9.024;2023-03-08T05:30:08;10.20;;;7.80;;
4011;SDS011;2020;48.682;9.024;2023-03-08T05:32:34;11.90;;;8.50;;
4011;SDS011;2020;48.682;9.024;2023-03-08T05:34:59;8.07;;;7.17;;
4011;SDS011;2020;48.682;9.024;2023-03-08T05:37:24;10.40;;;7.67;;
4011;SDS011;2020;48.682;9.024;2023-03-08T05:39:50;11.17;;;8.57;;
4011;SDS011;2020;48.682;9.024;2023-03-08T05:42:16;9.07;;;7.43;;
4011;SDS011;2020;48.682;9.024;2023-03-08T05:44:42;11.47;;;8.30;;
4011;SDS011;2020;48.682;9.024;2023-03-08T05:47:07;11.80;;;8.13;;
4011;SDS011;2020;48.682;9.024;2023-03-08T05:49:33;13.30;;;9.13;;
4011;SDS011;2020;48.682;9.024;2023-03-08T05:51:58;13.30;;;7.93;;
4011;SDS011;2020;48.682;9.024;2023-03-08T05:54:23;10.80;;;8.53;;
4011;SDS011;2020;48.682;9.024;2023-03-08T05:56:48;13.80;;;8.53;;
4011;SDS011;2020;48.682;9.024;2023-03-08T05:59:14;19.13;;;10.10;;
4011;SDS011;2020;48.682;9.024;2023-03-08T06:01:39;12.63;;;8.00;;
4011;SDS011;2020;48.682;9.024;2023-03-08T06:04:04;16.60;;;10.43;;
4011;SDS011;2020;48.682;9.024;2023-03-08T06:06:29;12.93;;;9.63;;
4011;SDS011;2020;48.682;9.024;2023-03-08T06:08:55;12.90;;;10.20;;
4011;SDS011;2020;48.682;9.024;2023-03-08T06:11:20;14.07;;;9.70;;
4011;SDS011;2020;48.682;9.024;2023-03-08T06:13:46;17.03;;;10.13;;
4011;SDS011;2020;48.682;9.024;2023-03-08T06:16:11;13.03;;;9.97;;
4011;SDS011;2020;48.682;9.024;2023-03-08T06:18:37;16.13;;;10.53;;
4011;SDS011;2020;48.682;9.024;2023-03-08T06:21:04;13.43;;;10.50;;
4011;SDS011;2020;48.682;9.024;2023-03-08T06:23:31;15.00;;;10.03;;
4011;SDS011;2020;48.682;9.024;2023-03-08T06:25:57;13.07;;;10.47;;
4011;SDS011;2020;48.682;9.024;2023-03-08T06:28:23;12.03;;;9.70;;
4011;SDS011;2020;48.682;9.024;2023-03-08T06:30:50;16.50;;;9.73;;
4011;SDS011;2020;48.682;9.024;2023-03-08T06:33:16;17.43;;;10.77;;
4011;SDS011;2020;48.682;9.024;2023-03-08T06:38:26;16.10;;;10.37;;
4011;SDS011;2020;48.682;9.024;2023-03-08T06:40:52;18.60;;;11.40;;
4011;SDS011;2020;48.682;9.024;2023-03-08T06:43:18;15.20;;;10.20;;
4011;SDS011;2020;48.682;9.024;2023-03-08T06:45:43;13.00;;;10.67;;
4011;SDS011;2020;48.682;9.024;2023-03-08T06:48:09;14.30;;;10.43;;
4011;SDS011;2020;48.682;9.024;2023-03-08T06:50:34;13.67;;;10.93;;
4011;SDS011;2020;48.682;9.024;2023-03-08T06:52:59;17.33;;;11.60;;
4011;SDS011;2020;48.682;9.024;2023-03-08T06:55:25;17.03;;;11.67;;
4011;SDS011;2020;48.682;9.024;2023-03-08T06:57:50;17.03;;;11.90;;
4011;SDS011;2020;48.682;9.024;2023-03-08T07:00:16;14.17;;;9.90;;
4011;SDS011;2020;48.682;9.024;2023-03-08T07:02:42;17.00;;;12.10;;
4011;SDS011;2020;48.682;9.024;2023-03-08T07:05:07;17.47;;;12.00;;
4011;SDS011;2020;48.682;9.024;2023-03-08T07:07:33;18.13;;;12.10;;
4011;SDS011;2020;48.682;9.024;2023-03-08T07:10:00;19.70;;;11.30;;
4011;SDS011;2020;48.682;9.024;2023-03-08T07:12:26;21.50;;;11.47;;
4011;SDS011;2020;48.682;9.024;2023-03-08T07:14:51;12.70;;;10.43;;
4011;SDS011;2020;48.682;9.024;2023-03-08T07:17:17;18.33;;;11.37;;
4011;SDS011;2020;48.682;9.024;2023-03-08T07:19:43;17.20;;;12.10;;
4011;SDS011;2020;48.682;9.024;2023-03-08T07:22:09;15.10;;;11.03;;
4011;SDS011;2020;48.682;9.024;2023-03-08T07:24:34;18.37;;;10.07;;
4011;SDS011;2020;48.682;9.024;2023-03-08T07:26:59;16.17;;;11.70;;
4011;SDS011;2020;48.682;9.024;2023-03-08T07:29:24;15.80;;;11.23;;
4011;SDS011;2020;48.682;9.024;2023-03-08T07:31:50;17.90;;;10.70;;
4011;SDS011;2020;48.682;9.024;2023-03-08T07:34:15;19.07;;;11.07;;
4011;SDS011;2020;48.682;9.024;2023-03-08T07:36:40;15.57;;;10.40;;
4011;SDS011;2020;48.682;9.024;2023-03-08T07:39:06;10.43;;;8.43;;
4011;SDS011;2020;48.682;9.024;2023-03-08T07:41:31;11.37;;;8.60;;
4011;SDS011;2020;48.682;9.024;2023-03-08T07:43:58;10.10;;;8.00;;
4011;SDS011;2020;48.682;9.024;2023-03-08T07:46:24;9.13;;;6.93;;
4011;SDS011;2020;48.682;9.024;2023-03-08T07:48:50;14.93;;;8.80;;
4011;SDS011;2020;48.682;9.024;2023-03-08T07:51:17;11.70;;;8.30;;
4011;SDS011;2020;48.682;9.024;2023-03-08T07:53:42;10.87;;;8.73;;
4011;SDS011;2020;48.682;9.024;2023-03-08T07:56:07;16.97;;;8.67;;
4011;SDS011;2020;48.682;9.024;2023-03-08T07:58:33;11.93;;;8.90;;
4011;SDS011;2020;48.682;9.024;2023-03-08T08:00:58;10.83;;;8.33;;
4011;SDS011;2020;48.682;9.024;2023-03-08T08:03:24;11.97;;;9.37;;
4011;SDS011;2020;48.682;9.024;2023-03-08T08:05:49;11.13;;;8.97;;
4011;SDS011;2020;48.682;9.024;2023-03-08T08:08:14;11.40;;;9.47;;
4011;SDS011;2020;48.682;9.024;2023-03-08T08:10:40;13.40;;;9.73;;
4011;SDS011;2020;48.682;9.024;2023-03-08T08:13:05;11.13;;;8.40;;
4011;SDS011;2020;48.682;9.024;2023-03-08T08:15:31;19.17;;;8.70;;
4011;SDS011;2020;48.682;9.024;2023-03-08T08:17:57;11.80;;;8.93;;
4011;SDS011;2020;48.682;9.024;2023-03-08T08:20:22;13.20;;;9.70;;
4011;SDS011;2020;48.682;9.024;2023-03-08T08:22:49;12.13;;;8.60;;
4011;SDS011;2020;48.682;9.024;2023-03-08T08:25:17;21.83;;;10.70;;
4011;SDS011;2020;48.682;9.024;2023-03-08T08:27:43;13.10;;;9.20;;
4011;SDS011;2020;48.682;9.024;2023-03-08T08:30:08;13.13;;;9.00;;
4011;SDS011;2020;48.682;9.024;2023-03-08T08:32:36;10.57;;;8.50;;
4011;SDS011;2020;48.682;9.024;2023-03-08T08:35:02;15.10;;;9.23;;
4011;SDS011;2020;48.682;9.024;2023-03-08T08:37:27;10.80;;;8.70;;
4011;SDS011;2020;48.682;9.024;2023-03-08T08:39:53;12.90;;;9.70;;
4011;SDS011;2020;48.682;9.024;2023-03-08T08:42:18;13.80;;;9.50;;
4011;SDS011;2020;48.682;9.024;2023-03-08T08:44:44;17.60;;;9.40;;
4011;SDS011;2020;48.682;9.024;2023-03-08T08:47:09;22.10;;;10.80;;
4011;SDS011;2020;48.682;9.024;2023-03-08T08:49:34;14.80;;;10.10;;
4011;SDS011;2020;48.682;9.024;2023-03-08T08:52:00;13.33;;;10.10;;
4011;SDS011;2020;48.682;9.024;2023-03-08T08:54:25;12.73;;;9.50;;
4011;SDS011;2020;48.682;9.024;2023-03-08T08:56:50;14.43;;;10.50;;
4011;SDS011;2020;48.682;9.024;2023-03-08T08:59:15;10.80;;;9.67;;
4011;SDS011;2020;48.682;9.024;2023-03-08T09:01:41;18.60;;;10.67;;
4011;SDS011;2020;48.682;9.024;2023-03-08T09:04:09;14.67;;;9.77;;
4011;SDS011;2020;48.682;9.024;2023-03-08T09:06:37;12.10;;;9.17;;
4011;SDS011;2020;48.682;9.024;2023-03-08T09:09:03;10.90;;;9.03;;
4011;SDS011;2020;48.682;9.024;2023-03-08T09:11:29;11.90;;;10.23;;
4011;SDS011;2020;48.682;9.024;2023-03-08T09:13:55;15.10;;;9.90;;
4011;SDS011;2020;48.682;9.024;2023-03-08T09:16:24;13.03;;;9.50;;
4011;SDS011;2020;48.682;9.024;2023-03-08T09:18:54;13.63;;;9.37;;
4011;SDS011;2020;48.682;9.024;2023-03-08T09:21:21;17.27;;;9.20;;
4011;SDS011;2020;48.682;9.024;2023-03-08T09:23:47;15.07;;;10.17;;
4011;SDS011;2020;48.682;9.024;2023-03-08T09:26:13;14.30;;;9.63;;
4011;SDS011;2020;48.682;9.024;2023-03-08T09:28:38;14.27;;;9.23;;
4011;SDS011;2020;48.682;9.024;2023-03-08T09:31:04;11.40;;;8.90;;
4011;SDS011;2020;48.682;9.024;2023-03-08T09:33:35;12.23;;;9.10;;
4011;SDS011;2020;48.682;9.024;2023-03-08T09:36:01;14.43;;;8.73;;
4011;SDS011;2020;48.682;9.024;2023-03-08T09:38:26;11.17;;;8.60;;
4011;SDS011;2020;48.682;9.024;2023-03-08T09:40:55;10.63;;;9.60;;
4011;SDS011;2020;48.682;9.024;2023-03-08T09:46:40;10.93;;;8.90;;
4011;SDS011;2020;48.682;9.024;2023-03-08T09:49:15;14.23;;;9.83;;
4011;SDS011;2020;48.682;9.024;2023-03-08T09:51:48;10.00;;;8.57;;
4011;SDS011;2020;48.682;9.024;2023-03-08T09:54:18;9.73;;;8.53;;
4011;SDS011;2020;48.682;9.024;2023-03-08T09:56:50;9.57;;;7.43;;
4011;SDS011;2020;48.682;9.024;2023-03-08T10:04:30;8.93;;;7.97;;
4011;SDS011;2020;48.682;9.024;2023-03-08T10:10:45;10.80;;;8.27;;
4011;SDS011;2020;48.682;9.024;2023-03-08T10:12:47;9.00;;;6.70;;
4011;SDS011;2020;48.682;9.024;2023-03-08T10:15:24;10.20;;;7.50;;
4011;SDS011;2020;48.682;9.024;2023-03-08T10:20:34;9.80;;;6.47;;
4011;SDS011;2020;48.682;9.024;2023-03-08T10:25:43;8.13;;;7.30;;
4011;SDS011;2020;48.682;9.024;2023-03-08T10:28:11;7.30;;;6.60;;
4011;SDS011;2020;48.682;9.024;2023-03-08T10:30:57;10.23;;;8.67;;
4011;SDS011;2020;48.682;9.024;2023-03-08T10:33:25;6.70;;;6.10;;
4011;SDS011;2020;48.682;9.024;2023-03-08T10:35:58;7.17;;;5.37;;
4011;SDS011;2020;48.682;9.024;2023-03-08T10:38:28;5.40;;;4.60;;
4011;SDS011;2020;48.682;9.024;2023-03-08T10:41:03;5.63;;;5.13;;
4011;SDS011;2020;48.682;9.024;2023-03-08T10:43:32;11.40;;;6.10;;
4011;SDS011;2020;48.682;9.024;2023-03-08T10:46:10;6.77;;;4.20;;
4011;SDS011;2020;48.682;9.024;2023-03-08T10:48:38;2.80;;;2.70;;
4011;SDS011;2020;48.682;9.024;2023-03-08T10:51:04;2.87;;;2.43;;
4011;SDS011;2020;48.682;9.024;2023-03-08T10:53:38;2.80;;;2.60;;
4011;SDS011;2020;48.682;9.024;2023-03-08T10:56:17;2.20;;;2.10;;
4011;SDS011;2020;48.682;9.024;2023-03-08T10:58:48;6.50;;;1.53;;
4011;SDS011;2020;48.682;9.024;2023-03-08T11:01:30;1.00;;;1.00;;
4011;SDS011;2020;48.682;9.024;2023-03-08T11:04:04;1.27;;;1.27;;
4011;SDS011;2020;48.682;9.024;2023-03-08T11:06:37;0.80;;;0.80;;
4011;SDS011;2020;48.682;9.024;2023-03-08T11:09:03;1.03;;;1.03;;
4011;SDS011;2020;48.682;9.024;2023-03-08T11:11:43;1.30;;;1.30;;
4011;SDS011;2020;48.682;9.024;2023-03-08T11:14:08;0.80;;;0.80;;
4011;SDS011;2020;48.682;9.024;2023-03-08T11:21:55;0.90;;;0.90;;
4011;SDS011;2020;48.682;9.024;2023-03-08T11:27:21;0.90;;;0.90;;
4011;SDS011;2020;48.682;9.024;2023-03-08T11:38:45;1.03;;;0.80;;
4011;SDS011;2020;48.682;9.024;2023-03-08T11:41:22;0.70;;;0.70;;
4011;SDS011;2020;48.682;9.024;2023-03-08T11:52:03;2.10;;;0.80;;
4011;SDS011;2020;48.682;9.024;2023-03-08T11:54:50;0.70;;;0.70;;
4011;SDS011;2020;48.682;9.024;2023-03-08T11:57:37;0.80;;;0.80;;
4011;SDS011;2020;48.682;9.024;2023-03-08T12:00:13;0.90;;;0.90;;
4011;SDS011;2020;48.682;9.024;2023-03-08T12:02:44;0.67;;;0.67;;
4011;SDS011;2020;48.682;9.024;2023-03-08T12:05:26;0.80;;;0.80;;
4011;SDS011;2020;48.682;9.024;2023-03-08T12:07:55;1.57;;;0.70;;
4011;SDS011;2020;48.682;9.024;2023-03-08T12:10:44;1.00;;;1.00;;
4011;SDS011;2020;48.682;9.024;2023-03-08T12:13:37;0.90;;;0.90;;
4011;SDS011;2020;48.682;9.024;2023-03-08T12:27:43;0.60;;;0.60;;
4011;SDS011;2020;48.682;9.024;2023-03-08T12:33:01;2.30;;;1.10;;
4011;SDS011;2020;48.682;9.024;2023-03-08T12:35:30;0.70;;;0.70;;
4011;SDS011;2020;48.682;9.024;2023-03-08T12:40:35;0.80;;;0.80;;
4011;SDS011;2020;48.682;9.024;2023-03-08T12:43:08;0.73;;;0.73;;
4011;SDS011;2020;48.682;9.024;2023-03-08T12:45:36;0.80;;;0.80;;
4011;SDS011;2020;48.682;9.024;2023-03-08T12:50:28;0.70;;;0.70;;
4011;SDS011;2020;48.682;9.024;2023-03-08T12:52:55;4.13;;;0.70;;
4011;SDS011;2020;48.682;9.024;2023-03-08T12:55:26;1.00;;;0.70;;
4011;SDS011;2020;48.682;9.024;2023-03-08T12:57:59;2.50;;;0.90;;
4011;SDS011;2020;48.682;9.024;2023-03-08T13:00:32;0.80;;;0.80;;
4011;SDS011;2020;48.682;9.024;2023-03-08T13:05:37;0.73;;;0.73;;
4011;SDS011;2020;48.682;9.024;2023-03-08T13:08:16;1.00;;;1.00;;
4011;SDS011;2020;48.682;9.024;2023-03-08T13:10:58;1.57;;;1.20;;
4011;SDS011;2020;48.682;9.024;2023-03-08T13:16:17;1.00;;;1.00;;
4011;SDS011;2020;48.682;9.024;2023-03-08T13:18:47;1.10;;;0.80;;
4011;SDS011;2020;48.682;9.024;2023-03-08T13:21:19;0.87;;;0.87;;
4011;SDS011;2020;48.682;9.024;2023-03-08T13:29:32;0.70;;;0.67;;
4011;SDS011;2020;48.682;9.024;2023-03-08T13:32:03;0.80;;;0.80;;
4011;SDS011;2020;48.682;9.024;2023-03-08T13:34:31;1.37;;;0.70;;
4011;SDS011;2020;48.682;9.024;2023-03-08T13:36:59;0.83;;;0.83;;
4011;SDS011;2020;48.682;9.024;2023-03-08T13:39:26;1.10;;;1.10;;
4011;SDS011;2020;48.682;9.024;2023-03-08T13:42:04;0.90;;;0.90;;
4011;SDS011;2020;48.682;9.024;2023-03-08T13:44:30;0.93;;;0.93;;
4011;SDS011;2020;48.682;9.024;2023-03-08T13:46:57;0.70;;;0.70;;
4011;SDS011;2020;48.682;9.024;2023-03-08T13:49:29;0.90;;;0.80;;
4011;SDS011;2020;48.682;9.024;2023-03-08T13:51:59;0.90;;;0.90;;
4011;SDS011;2020;48.682;9.024;2023-03-08T13:57:06;0.70;;;0.60;;
4011;SDS011;2020;48.682;9.024;2023-03-08T13:59:46;0.60;;;0.60;;
4011;SDS011;2020;48.682;9.024;2023-03-08T14:02:23;0.60;;;0.60;;
4011;SDS011;2020;48.682;9.024;2023-03-08T14:04:50;0.50;;;0.50;;
4011;SDS011;2020;48.682;9.024;2023-03-08T14:07:20;0.60;;;0.60;;
4011;SDS011;2020;48.682;9.024;2023-03-08T14:09:47;3.47;;;0.70;;
4011;SDS011;2020;48.682;9.024;2023-03-08T14:12:17;0.70;;;0.70;;
4011;SDS011;2020;48.682;9.024;2023-03-08T14:14:46;0.50;;;0.50;;
4011;SDS011;2020;48.682;9.024;2023-03-08T14:17:17;0.50;;;0.50;;
4011;SDS011;2020;48.682;9.024;2023-03-08T14:19:45;1.43;;;0.70;;
4011;SDS011;2020;48.682;9.024;2023-03-08T14:22:17;0.70;;;0.70;;
4011;SDS011;2020;48.682;9.024;2023-03-08T14:24:48;0.60;;;0.60;;
4011;SDS011;2020;48.682;9.024;2023-03-08T14:29:43;0.80;;;0.40;;
4011;SDS011;2020;48.682;9.024;2023-03-08T14:34:41;0.77;;;0.50;;
4011;SDS011;2020;48.682;9.024;2023-03-08T14:37:27;0.50;;;0.50;;
4011;SDS011;2020;48.682;9.024;2023-03-08T14:40:44;0.50;;;0.50;;
4011;SDS011;2020;48.682;9.024;2023-03-08T14:43:00;0.50;;;0.50;;
4011;SDS011;2020;48.682;9.024;2023-03-08T14:48:13;1.47;;;0.50;;
4011;SDS011;2020;48.682;9.024;2023-03-08T14:50:50;1.53;;;0.50;;
4011;SDS011;2020;48.682;9.024;2023-03-08T14:53:24;0.80;;;0.80;;
4011;SDS011;2020;48.682;9.024;2023-03-08T14:55:53;0.50;;;0.50;;
4011;SDS011;2020;48.682;9.024;2023-03-08T14:58:19;0.57;;;0.50;;
4011;SDS011;2020;48.682;9.024;2023-03-08T15:00:48;1.10;;;0.50;;
4011;SDS011;2020;48.682;9.024;2023-03-08T15:03:14;1.03;;;0.70;;
4011;SDS011;2020;48.682;9.024;2023-03-08T15:05:40;0.70;;;0.70;;
4011;SDS011;2020;48.682;9.024;2023-03-08T15:08:05;0.60;;;0.60;;
4011;SDS011;2020;48.682;9.024;2023-03-08T15:10:34;0.70;;;0.70;;
4011;SDS011;2020;48.682;9.024;2023-03-08T15:13:02;0.73;;;0.73;;
4011;SDS011;2020;48.682;9.024;2023-03-08T15:15:28;3.47;;;0.70;;
4011;SDS011;2020;48.682;9.024;2023-03-08T15:17:53;0.70;;;0.70;;
4011;SDS011;2020;48.682;9.024;2023-03-08T15:20:18;1.60;;;0.60;;
4011;SDS011;2020;48.682;9.024;2023-03-08T15:22:46;0.83;;;0.83;;
4011;SDS011;2020;48.682;9.024;2023-03-08T15:25:15;0.60;;;0.60;;
4011;SDS011;2020;48.682;9.024;2023-03-08T15:27:43;5.07;;;0.67;;
4011;SDS011;2020;48.682;9.024;2023-03-08T15:30:13;2.50;;;0.83;;
4011;SDS011;2020;48.682;9.024;2023-03-08T15:32:39;0.70;;;0.70;;
4011;SDS011;2020;48.682;9.024;2023-03-08T15:35:05;0.60;;;0.60;;
4011;SDS011;2020;48.682;9.024;2023-03-08T15:37:31;0.60;;;0.60;;
4011;SDS011;2020;48.682;9.024;2023-03-08T15:39:56;3.90;;;0.77;;
4011;SDS011;2020;48.682;9.024;2023-03-08T15:42:21;1.40;;;0.60;;
4011;SDS011;2020;48.682;9.024;2023-03-08T15:44:46;0.60;;;0.60;;
4011;SDS011;2020;48.682;9.024;2023-03-08T15:47:12;0.50;;;0.50;;
4011;SDS011;2020;48.682;9.024;2023-03-08T15:49:37;0.50;;;0.50;;
4011;SDS011;2020;48.682;9.024;2023-03-08T15:52:03;0.60;;;0.60;;
4011;SDS011;2020;48.682;9.024;2023-03-08T15:54:28;1.33;;;0.60;;
4011;SDS011;2020;48.682;9.024;2023-03-08T15:56:55;0.73;;;0.70;;
4011;SDS011;2020;48.682;9.024;2023-03-08T15:59:22;1.77;;;1.30;;
4011;SDS011;2020;48.682;9.024;2023-03-08T16:01:47;3.27;;;0.80;;
4011;SDS011;2020;48.682;9.024;2023-03-08T16:04:12;2.40;;;1.37;;
4011;SDS011;2020;48.682;9.024;2023-03-08T16:06:39;0.73;;;0.73;;
4011;SDS011;2020;48.682;9.024;2023-03-08T16:09:05;0.90;;;0.90;;
4011;SDS011;2020;48.682;9.024;2023-03-08T16:11:30;0.70;;;0.70;;
4011;SDS011;2020;48.682;9.024;2023-03-08T16:13:56;0.90;;;0.80;;
4011;SDS011;2020;48.682;9.024;2023-03-08T16:16:21;1.90;;;0.70;;
4011;SDS011;2020;48.682;9.024;2023-03-08T16:18:46;0.83;;;0.70;;
4011;SDS011;2020;48.682;9.024;2023-03-08T16:21:12;0.60;;;0.60;;
4011;SDS011;2020;48.682;9.024;2023-03-08T16:23:38;0.50;;;0.50;;
4011;SDS011;2020;48.682;9.024;2023-03-08T16:26:10;0.60;;;0.60;;
4011;SDS011;2020;48.682;9.024;2023-03-08T16:28:36;0.83;;;0.83;;
4011;SDS011;2020;48.682;9.024;2023-03-08T16:31:02;0.83;;;0.70;;
4011;SDS011;2020;48.682;9.024;2023-03-08T16:33:27;0.97;;;0.73;;
4011;SDS011;2020;48.682;9.024;2023-03-08T16:35:53;0.50;;;0.50;;
4011;SDS011;2020;48.682;9.024;2023-03-08T16:38:19;0.50;;;0.50;;